sensor_id;sensor_type;location;lat;lon;timestamp;P1;durP1;ratioP1;P2;durP2;ratioP2
43042;SDS011;28667;50.758;6.096;2023-02-10T00:01:12;24.10;;;10.00;;
43042;SDS011;28667;50.758;6.096;2023-02-10T00:03:48;22.10;;;10.77;;
43042;SDS011;28667;50.758;6.096;2023-02-10T00:06:14;32.75;;;12.35;;
43042;SDS011;28667;50.758;6.096;2023-02-10T00:08:42;24.80;;;10.00;;
43042;SDS011;28667;50.758;6.096;2023-02-10T00:11:11;21.42;;;9.95;;
43042;SDS011;28667;50.758;6.096;2023-02-10T00:13:37;28.27;;;11.70;;
43042;SDS011;28667;50.758;6.096;2023-02-10T00:16:05;20.70;;;10.95;;
43042;SDS011;28667;50.758;6.096;2023-02-10T00:18:32;20.42;;;10.32;;
43042;SDS011;28667;50.758;6.096;2023-02-10T00:21:07;26.70;;;11.15;;
43042;SDS011;28667;50.758;6.096;2023-02-10T00:23:35;24.55;;;9.52;;
43042;SDS011;28667;50.758;6.096;2023-02-10T00:26:02;27.13;;;11.63;;
43042;SDS011;28667;50.758;6.096;2023-02-10T00:28:29;20.33;;;10.07;;
43042;SDS011;28667;50.758;6.096;2023-02-10T00:30:56;24.48;;;10.10;;
43042;SDS011;28667;50.758;6.096;2023-02-10T00:33:22;20.52;;;8.77;;
43042;SDS011;28667;50.758;6.096;2023-02-10T00:35:48;30.15;;;10.30;;
43042;SDS011;28667;50.758;6.096;2023-02-10T00:38:13;20.27;;;9.05;;
43042;SDS011;28667;50.758;6.096;2023-02-10T00:40:39;25.15;;;9.30;;
43042;SDS011;28667;50.758;6.096;2023-02-10T00:43:05;27.23;;;10.70;;
43042;SDS011;28667;50.758;6.096;2023-02-10T00:45:30;22.00;;;9.68;;
43042;SDS011;28667;50.758;6.096;2023-02-10T00:47:59;23.52;;;9.65;;
43042;SDS011;28667;50.758;6.096;2023-02-10T00:50:26;27.98;;;10.60;;
43042;SDS011;28667;50.758;6.096;2023-02-10T00:52:51;24.33;;;11.05;;
43042;SDS011;28667;50.758;6.096;2023-02-10T00:55:17;21.15;;;9.48;;
43042;SDS011;28667;50.758;6.096;2023-02-10T00:57:43;26.40;;;9.70;;
43042;SDS011;28667;50.758;6.096;2023-02-10T01:00:08;18.60;;;8.57;;
43042;SDS011;28667;50.758;6.096;2023-02-10T01:02:35;21.35;;;9.15;;
43042;SDS011;28667;50.758;6.096;2023-02-10T01:05:00;22.52;;;9.50;;
43042;SDS011;28667;50.758;6.096;2023-02-10T01:07:28;24.98;;;10.90;;
43042;SDS011;28667;50.758;6.096;2023-02-10T01:09:54;23.48;;;8.82;;
43042;SDS011;28667;50.758;6.096;2023-02-10T01:12:20;25.48;;;10.10;;
43042;SDS011;28667;50.758;6.096;2023-02-10T01:14:46;25.08;;;10.55;;
43042;SDS011;28667;50.758;6.096;2023-02-10T01:17:12;25.77;;;10.18;;
43042;SDS011;28667;50.758;6.096;2023-02-10T01:19:41;26.60;;;10.32;;
43042;SDS011;28667;50.758;6.096;2023-02-10T01:22:07;21.98;;;9.48;;
43042;SDS011;28667;50.758;6.096;2023-02-10T01:24:32;21.58;;;9.57;;
43042;SDS011;28667;50.758;6.096;2023-02-10T01:26:58;23.30;;;10.52;;
43042;SDS011;28667;50.758;6.096;2023-02-10T01:29:24;21.52;;;10.20;;
43042;SDS011;28667;50.758;6.096;2023-02-10T01:31:50;26.05;;;10.02;;
43042;SDS011;28667;50.758;6.096;2023-02-10T01:34:15;20.27;;;9.02;;
43042;SDS011;28667;50.758;6.096;2023-02-10T01:36:41;20.83;;;10.25;;
43042;SDS011;28667;50.758;6.096;2023-02-10T01:39:07;24.58;;;9.73;;
43042;SDS011;28667;50.758;6.096;2023-02-10T01:41:34;17.73;;;9.10;;
43042;SDS011;28667;50.758;6.096;2023-02-10T01:46:29;21.83;;;9.93;;
43042;SDS011;28667;50.758;6.096;2023-02-10T01:49:05;22.83;;;9.77;;
43042;SDS011;28667;50.758;6.096;2023-02-10T01:52:09;22.58;;;9.90;;
43042;SDS011;28667;50.758;6.096;2023-02-10T01:54:30;35.28;;;10.95;;
43042;SDS011;28667;50.758;6.096;2023-02-10T01:57:08;26.35;;;9.30;;
43042;SDS011;28667;50.758;6.096;2023-02-10T01:59:35;28.08;;;8.90;;
43042;SDS011;28667;50.758;6.096;2023-02-10T02:02:03;24.40;;;10.35;;
43042;SDS011;28667;50.758;6.096;2023-02-10T02:07:18;26.63;;;10.40;;
43042;SDS011;28667;50.758;6.096;2023-02-10T02:09:46;32.55;;;10.70;;
43042;SDS011;28667;50.758;6.096;2023-02-10T02:15:17;21.60;;;10.68;;
43042;SDS011;28667;50.758;6.096;2023-02-10T02:32:16;26.90;;;8.90;;
43042;SDS011;28667;50.758;6.096;2023-02-10T02:37:28;28.45;;;9.00;;
43042;SDS011;28667;50.758;6.096;2023-02-10T02:39:57;23.65;;;10.13;;
43042;SDS011;28667;50.758;6.096;2023-02-10T02:44:51;25.25;;;9.30;;
43042;SDS011;28667;50.758;6.096;2023-02-10T02:47:25;25.75;;;9.52;;
43042;SDS011;28667;50.758;6.096;2023-02-10T02:52:51;23.85;;;9.20;;
43042;SDS011;28667;50.758;6.096;2023-02-10T02:57:57;30.33;;;10.88;;
43042;SDS011;28667;50.758;6.096;2023-02-10T03:00:45;23.52;;;8.63;;
43042;SDS011;28667;50.758;6.096;2023-02-10T03:03:15;27.17;;;10.65;;
43042;SDS011;28667;50.758;6.096;2023-02-10T03:05:41;22.27;;;8.07;;
43042;SDS011;28667;50.758;6.096;2023-02-10T03:08:07;24.25;;;9.27;;
43042;SDS011;28667;50.758;6.096;2023-02-10T03:10:33;26.17;;;9.32;;
43042;SDS011;28667;50.758;6.096;2023-02-10T03:12:58;25.15;;;8.90;;
43042;SDS011;28667;50.758;6.096;2023-02-10T03:15:24;24.77;;;8.43;;
43042;SDS011;28667;50.758;6.096;2023-02-10T03:17:50;23.83;;;9.65;;
43042;SDS011;28667;50.758;6.096;2023-02-10T03:20:15;20.20;;;8.43;;
43042;SDS011;28667;50.758;6.096;2023-02-10T03:22:42;30.60;;;10.27;;
43042;SDS011;28667;50.758;6.096;2023-02-10T03:25:08;25.50;;;10.23;;
43042;SDS011;28667;50.758;6.096;2023-02-10T03:27:34;28.33;;;10.45;;
43042;SDS011;28667;50.758;6.096;2023-02-10T03:30:00;23.02;;;9.55;;
43042;SDS011;28667;50.758;6.096;2023-02-10T03:32:26;21.63;;;9.15;;
43042;SDS011;28667;50.758;6.096;2023-02-10T03:34:51;36.83;;;11.32;;
43042;SDS011;28667;50.758;6.096;2023-02-10T03:37:17;23.20;;;10.63;;
43042;SDS011;28667;50.758;6.096;2023-02-10T03:39:43;28.08;;;10.68;;
43042;SDS011;28667;50.758;6.096;2023-02-10T03:42:08;31.08;;;9.90;;
43042;SDS011;28667;50.758;6.096;2023-02-10T03:44:35;30.25;;;10.48;;
43042;SDS011;28667;50.758;6.096;2023-02-10T03:47:00;31.33;;;9.93;;
43042;SDS011;28667;50.758;6.096;2023-02-10T03:49:26;20.02;;;9.60;;
43042;SDS011;28667;50.758;6.096;2023-02-10T03:51:52;26.80;;;11.02;;
43042;SDS011;28667;50.758;6.096;2023-02-10T03:54:17;20.10;;;10.52;;
43042;SDS011;28667;50.758;6.096;2023-02-10T03:56:43;21.98;;;10.77;;
43042;SDS011;28667;50.758;6.096;2023-02-10T03:59:09;27.30;;;9.35;;
43042;SDS011;28667;50.758;6.096;2023-02-10T04:01:34;26.17;;;10.27;;
43042;SDS011;28667;50.758;6.096;2023-02-10T04:04:01;27.25;;;10.40;;
43042;SDS011;28667;50.758;6.096;2023-02-10T04:06:27;26.40;;;10.50;;
43042;SDS011;28667;50.758;6.096;2023-02-10T04:08:53;25.77;;;10.60;;
43042;SDS011;28667;50.758;6.096;2023-02-10T04:11:19;28.40;;;10.48;;
43042;SDS011;28667;50.758;6.096;2023-02-10T04:13:45;25.02;;;11.02;;
43042;SDS011;28667;50.758;6.096;2023-02-10T04:16:15;31.73;;;11.30;;
43042;SDS011;28667;50.758;6.096;2023-02-10T04:18:41;24.33;;;10.98;;
43042;SDS011;28667;50.758;6.096;2023-02-10T04:21:09;27.23;;;11.15;;
43042;SDS011;28667;50.758;6.096;2023-02-10T04:23:36;24.10;;;10.43;;
43042;SDS011;28667;50.758;6.096;2023-02-10T04:26:02;27.23;;;10.93;;
43042;SDS011;28667;50.758;6.096;2023-02-10T04:28:28;29.65;;;9.20;;
43042;SDS011;28667;50.758;6.096;2023-02-10T04:30:55;20.98;;;9.20;;
43042;SDS011;28667;50.758;6.096;2023-02-10T04:33:23;23.75;;;10.10;;
43042;SDS011;28667;50.758;6.096;2023-02-10T04:35:52;37.70;;;11.57;;
43042;SDS011;28667;50.758;6.096;2023-02-10T04:38:19;27.65;;;10.05;;
43042;SDS011;28667;50.758;6.096;2023-02-10T04:40:46;26.23;;;10.32;;
43042;SDS011;28667;50.758;6.096;2023-02-10T04:43:12;29.55;;;10.65;;
43042;SDS011;28667;50.758;6.096;2023-02-10T04:45:38;29.30;;;10.05;;
43042;SDS011;28667;50.758;6.096;2023-02-10T04:48:04;23.83;;;10.23;;
43042;SDS011;28667;50.758;6.096;2023-02-10T04:50:30;25.13;;;9.60;;
43042;SDS011;28667;50.758;6.096;2023-02-10T04:52:56;26.67;;;11.18;;
43042;SDS011;28667;50.758;6.096;2023-02-10T04:55:21;32.92;;;11.48;;
43042;SDS011;28667;50.758;6.096;2023-02-10T04:57:47;27.10;;;10.55;;
43042;SDS011;28667;50.758;6.096;2023-02-10T05:00:13;25.98;;;11.68;;
43042;SDS011;28667;50.758;6.096;2023-02-10T05:02:39;34.13;;;12.38;;
43042;SDS011;28667;50.758;6.096;2023-02-10T05:05:06;26.02;;;10.63;;
43042;SDS011;28667;50.758;6.096;2023-02-10T05:07:31;25.35;;;9.27;;
43042;SDS011;28667;50.758;6.096;2023-02-10T05:09:57;27.63;;;10.57;;
43042;SDS011;28667;50.758;6.096;2023-02-10T05:12:23;34.35;;;12.15;;
43042;SDS011;28667;50.758;6.096;2023-02-10T05:14:49;32.95;;;11.15;;
43042;SDS011;28667;50.758;6.096;2023-02-10T05:17:14;25.23;;;10.88;;
43042;SDS011;28667;50.758;6.096;2023-02-10T05:19:40;27.45;;;11.25;;
43042;SDS011;28667;50.758;6.096;2023-02-10T05:22:06;29.73;;;11.18;;
43042;SDS011;28667;50.758;6.096;2023-02-10T05:24:32;26.48;;;9.18;;
43042;SDS011;28667;50.758;6.096;2023-02-10T05:26:57;29.08;;;10.75;;
43042;SDS011;28667;50.758;6.096;2023-02-10T05:29:23;25.30;;;10.02;;
43042;SDS011;28667;50.758;6.096;2023-02-10T05:31:49;31.20;;;12.38;;
43042;SDS011;28667;50.758;6.096;2023-02-10T05:34:15;33.00;;;12.00;;
43042;SDS011;28667;50.758;6.096;2023-02-10T05:36:40;38.17;;;13.40;;
43042;SDS011;28667;50.758;6.096;2023-02-10T05:39:08;27.42;;;11.45;;
43042;SDS011;28667;50.758;6.096;2023-02-10T05:41:54;31.25;;;12.38;;
43042;SDS011;28667;50.758;6.096;2023-02-10T05:44:22;34.10;;;12.60;;
43042;SDS011;28667;50.758;6.096;2023-02-10T05:46:49;24.05;;;11.20;;
43042;SDS011;28667;50.758;6.096;2023-02-10T05:49:15;33.08;;;11.95;;
43042;SDS011;28667;50.758;6.096;2023-02-10T05:51:41;34.83;;;12.15;;
43042;SDS011;28667;50.758;6.096;2023-02-10T05:54:07;33.78;;;12.73;;
43042;SDS011;28667;50.758;6.096;2023-02-10T05:56:33;26.50;;;12.23;;
43042;SDS011;28667;50.758;6.096;2023-02-10T05:58:59;37.17;;;12.02;;
43042;SDS011;28667;50.758;6.096;2023-02-10T06:01:25;28.45;;;11.23;;
43042;SDS011;28667;50.758;6.096;2023-02-10T06:03:51;29.95;;;13.25;;
43042;SDS011;28667;50.758;6.096;2023-02-10T06:06:17;30.85;;;11.80;;
43042;SDS011;28667;50.758;6.096;2023-02-10T06:08:43;30.92;;;12.35;;
43042;SDS011;28667;50.758;6.096;2023-02-10T06:11:08;35.40;;;12.55;;
43042;SDS011;28667;50.758;6.096;2023-02-10T06:13:34;27.38;;;11.52;;
43042;SDS011;28667;50.758;6.096;2023-02-10T06:16:01;34.28;;;12.52;;
43042;SDS011;28667;50.758;6.096;2023-02-10T06:18:27;27.00;;;11.05;;
43042;SDS011;28667;50.758;6.096;2023-02-10T06:20:53;35.60;;;12.63;;
43042;SDS011;28667;50.758;6.096;2023-02-10T06:23:19;34.50;;;11.80;;
43042;SDS011;28667;50.758;6.096;2023-02-10T06:25:45;30.10;;;11.43;;
43042;SDS011;28667;50.758;6.096;2023-02-10T06:28:12;32.40;;;11.32;;
43042;SDS011;28667;50.758;6.096;2023-02-10T06:30:39;31.52;;;11.63;;
43042;SDS011;28667;50.758;6.096;2023-02-10T06:33:08;31.85;;;12.32;;
43042;SDS011;28667;50.758;6.096;2023-02-10T06:35:34;24.63;;;9.63;;
43042;SDS011;28667;50.758;6.096;2023-02-10T06:37:59;28.52;;;12.40;;
43042;SDS011;28667;50.758;6.096;2023-02-10T06:40:25;29.02;;;12.88;;
43042;SDS011;28667;50.758;6.096;2023-02-10T06:42:51;32.78;;;12.52;;
43042;SDS011;28667;50.758;6.096;2023-02-10T06:45:16;27.33;;;11.48;;
43042;SDS011;28667;50.758;6.096;2023-02-10T06:47:42;36.03;;;12.43;;
43042;SDS011;28667;50.758;6.096;2023-02-10T06:50:08;31.55;;;10.63;;
43042;SDS011;28667;50.758;6.096;2023-02-10T06:52:34;28.23;;;12.48;;
43042;SDS011;28667;50.758;6.096;2023-02-10T06:55:03;31.02;;;11.95;;
43042;SDS011;28667;50.758;6.096;2023-02-10T06:57:30;33.85;;;11.00;;
43042;SDS011;28667;50.758;6.096;2023-02-10T06:59:55;31.13;;;12.32;;
43042;SDS011;28667;50.758;6.096;2023-02-10T07:02:21;34.40;;;11.68;;
43042;SDS011;28667;50.758;6.096;2023-02-10T07:04:47;32.88;;;11.13;;
43042;SDS011;28667;50.758;6.096;2023-02-10T07:07:13;32.80;;;11.77;;
43042;SDS011;28667;50.758;6.096;2023-02-10T07:09:38;30.95;;;10.13;;
43042;SDS011;28667;50.758;6.096;2023-02-10T07:12:04;27.17;;;11.63;;
43042;SDS011;28667;50.758;6.096;2023-02-10T07:14:30;27.25;;;10.57;;
43042;SDS011;28667;50.758;6.096;2023-02-10T07:16:56;38.42;;;11.73;;
43042;SDS011;28667;50.758;6.096;2023-02-10T07:19:21;30.30;;;11.40;;
43042;SDS011;28667;50.758;6.096;2023-02-10T07:21:47;35.63;;;11.50;;
43042;SDS011;28667;50.758;6.096;2023-02-10T07:24:13;35.05;;;11.45;;
43042;SDS011;28667;50.758;6.096;2023-02-10T07:26:39;28.45;;;10.75;;
43042;SDS011;28667;50.758;6.096;2023-02-10T07:29:05;30.25;;;12.52;;
43042;SDS011;28667;50.758;6.096;2023-02-10T07:31:31;28.23;;;11.23;;
43042;SDS011;28667;50.758;6.096;2023-02-10T07:34:00;40.25;;;13.43;;
43042;SDS011;28667;50.758;6.096;2023-02-10T07:36:27;38.97;;;12.20;;
43042;SDS011;28667;50.758;6.096;2023-02-10T07:38:53;29.77;;;11.15;;
43042;SDS011;28667;50.758;6.096;2023-02-10T07:41:18;28.08;;;10.63;;
43042;SDS011;28667;50.758;6.096;2023-02-10T07:43:44;37.33;;;11.63;;
43042;SDS011;28667;50.758;6.096;2023-02-10T07:46:14;26.38;;;9.98;;
43042;SDS011;28667;50.758;6.096;2023-02-10T07:48:40;41.05;;;10.45;;
43042;SDS011;28667;50.758;6.096;2023-02-10T07:51:06;39.55;;;13.85;;
43042;SDS011;28667;50.758;6.096;2023-02-10T07:53:32;35.42;;;11.68;;
43042;SDS011;28667;50.758;6.096;2023-02-10T07:55:58;32.65;;;12.35;;
43042;SDS011;28667;50.758;6.096;2023-02-10T07:58:25;44.15;;;12.68;;
43042;SDS011;28667;50.758;6.096;2023-02-10T08:00:51;38.95;;;12.13;;
43042;SDS011;28667;50.758;6.096;2023-02-10T08:03:16;30.73;;;10.15;;
43042;SDS011;28667;50.758;6.096;2023-02-10T08:05:42;35.83;;;12.40;;
43042;SDS011;28667;50.758;6.096;2023-02-10T08:08:09;35.53;;;12.45;;
43042;SDS011;28667;50.758;6.096;2023-02-10T08:10:36;36.40;;;12.73;;
43042;SDS011;28667;50.758;6.096;2023-02-10T08:13:03;32.38;;;11.27;;
43042;SDS011;28667;50.758;6.096;2023-02-10T08:15:29;35.78;;;13.05;;
43042;SDS011;28667;50.758;6.096;2023-02-10T08:17:55;42.35;;;12.02;;
43042;SDS011;28667;50.758;6.096;2023-02-10T08:20:20;32.67;;;11.60;;
43042;SDS011;28667;50.758;6.096;2023-02-10T08:22:46;36.58;;;12.52;;
43042;SDS011;28667;50.758;6.096;2023-02-10T08:25:12;40.55;;;14.55;;
43042;SDS011;28667;50.758;6.096;2023-02-10T08:27:38;40.40;;;12.25;;
43042;SDS011;28667;50.758;6.096;2023-02-10T08:30:04;36.08;;;12.57;;
43042;SDS011;28667;50.758;6.096;2023-02-10T08:32:31;37.47;;;12.55;;
43042;SDS011;28667;50.758;6.096;2023-02-10T08:34:56;34.58;;;11.85;;
43042;SDS011;28667;50.758;6.096;2023-02-10T08:37:22;41.22;;;12.18;;
43042;SDS011;28667;50.758;6.096;2023-02-10T08:39:48;38.67;;;14.27;;
43042;SDS011;28667;50.758;6.096;2023-02-10T08:42:14;34.65;;;11.75;;
43042;SDS011;28667;50.758;6.096;2023-02-10T08:44:40;35.80;;;13.25;;
43042;SDS011;28667;50.758;6.096;2023-02-10T08:47:05;43.28;;;15.00;;
43042;SDS011;28667;50.758;6.096;2023-02-10T08:49:31;40.35;;;12.82;;
43042;SDS011;28667;50.758;6.096;2023-02-10T08:51:57;40.45;;;13.90;;
43042;SDS011;28667;50.758;6.096;2023-02-10T08:54:23;38.03;;;13.98;;
43042;SDS011;28667;50.758;6.096;2023-02-10T08:56:52;43.20;;;12.85;;
43042;SDS011;28667;50.758;6.096;2023-02-10T08:59:19;31.70;;;11.98;;
43042;SDS011;28667;50.758;6.096;2023-02-10T09:01:45;37.92;;;14.32;;
43042;SDS011;28667;50.758;6.096;2023-02-10T09:04:11;39.95;;;14.10;;
43042;SDS011;28667;50.758;6.096;2023-02-10T09:06:37;41.58;;;15.98;;
43042;SDS011;28667;50.758;6.096;2023-02-10T09:09:06;41.35;;;14.35;;
43042;SDS011;28667;50.758;6.096;2023-02-10T09:11:32;37.63;;;12.75;;
43042;SDS011;28667;50.758;6.096;2023-02-10T09:13:58;34.42;;;12.80;;
43042;SDS011;28667;50.758;6.096;2023-02-10T09:16:24;42.60;;;13.57;;
43042;SDS011;28667;50.758;6.096;2023-02-10T09:18:50;39.22;;;13.32;;
43042;SDS011;28667;50.758;6.096;2023-02-10T09:21:16;37.40;;;13.05;;
43042;SDS011;28667;50.758;6.096;2023-02-10T09:23:42;35.30;;;15.40;;
43042;SDS011;28667;50.758;6.096;2023-02-10T09:26:08;32.00;;;12.70;;
43042;SDS011;28667;50.758;6.096;2023-02-10T09:28:34;37.35;;;13.43;;
43042;SDS011;28667;50.758;6.096;2023-02-10T09:31:00;33.65;;;13.90;;
43042;SDS011;28667;50.758;6.096;2023-02-10T09:33:29;40.97;;;13.73;;
43042;SDS011;28667;50.758;6.096;2023-02-10T09:35:54;36.00;;;12.30;;
43042;SDS011;28667;50.758;6.096;2023-02-10T09:38:20;39.90;;;13.05;;
43042;SDS011;28667;50.758;6.096;2023-02-10T09:40:48;30.02;;;12.63;;
43042;SDS011;28667;50.758;6.096;2023-02-10T09:52:06;26.20;;;10.63;;
43042;SDS011;28667;50.758;6.096;2023-02-10T09:54:47;32.72;;;12.52;;
43042;SDS011;28667;50.758;6.096;2023-02-10T09:57:15;36.10;;;12.68;;
43042;SDS011;28667;50.758;6.096;2023-02-10T09:59:47;30.67;;;11.48;;
43042;SDS011;28667;50.758;6.096;2023-02-10T10:02:31;27.23;;;11.10;;
43042;SDS011;28667;50.758;6.096;2023-02-10T10:05:09;31.88;;;12.55;;
43042;SDS011;28667;50.758;6.096;2023-02-10T10:07:45;30.13;;;11.43;;
43042;SDS011;28667;50.758;6.096;2023-02-10T10:10:17;33.92;;;13.65;;
43042;SDS011;28667;50.758;6.096;2023-02-10T10:12:49;29.65;;;9.98;;
43042;SDS011;28667;50.758;6.096;2023-02-10T10:15:16;26.30;;;11.38;;
43042;SDS011;28667;50.758;6.096;2023-02-10T10:20:43;24.58;;;10.50;;
43042;SDS011;28667;50.758;6.096;2023-02-10T10:31:55;21.95;;;9.10;;
43042;SDS011;28667;50.758;6.096;2023-02-10T10:34:33;25.70;;;9.75;;
43042;SDS011;28667;50.758;6.096;2023-02-10T10:37:05;20.98;;;8.10;;
43042;SDS011;28667;50.758;6.096;2023-02-10T10:44:58;22.00;;;8.88;;
43042;SDS011;28667;50.758;6.096;2023-02-10T10:47:34;11.02;;;6.93;;
43042;SDS011;28667;50.758;6.096;2023-02-10T10:50:13;23.35;;;8.23;;
43042;SDS011;28667;50.758;6.096;2023-02-10T10:52:44;21.30;;;7.78;;
43042;SDS011;28667;50.758;6.096;2023-02-10T10:55:28;21.90;;;8.48;;
43042;SDS011;28667;50.758;6.096;2023-02-10T11:00:51;15.25;;;7.38;;
43042;SDS011;28667;50.758;6.096;2023-02-10T11:03:20;17.88;;;7.40;;
43042;SDS011;28667;50.758;6.096;2023-02-10T11:05:59;16.48;;;7.43;;
43042;SDS011;28667;50.758;6.096;2023-02-10T11:08:39;24.48;;;8.07;;
43042;SDS011;28667;50.758;6.096;2023-02-10T11:11:13;19.80;;;7.93;;
43042;SDS011;28667;50.758;6.096;2023-02-10T11:13:49;19.85;;;8.93;;
43042;SDS011;28667;50.758;6.096;2023-02-10T11:16:18;17.13;;;8.15;;
43042;SDS011;28667;50.758;6.096;2023-02-10T11:18:53;18.85;;;7.47;;
43042;SDS011;28667;50.758;6.096;2023-02-10T11:21:35;16.92;;;8.68;;
43042;SDS011;28667;50.758;6.096;2023-02-10T11:24:03;18.17;;;8.65;;
43042;SDS011;28667;50.758;6.096;2023-02-10T11:26:40;21.45;;;8.50;;
43042;SDS011;28667;50.758;6.096;2023-02-10T11:29:09;17.70;;;7.90;;
43042;SDS011;28667;50.758;6.096;2023-02-10T11:31:36;20.88;;;8.65;;
43042;SDS011;28667;50.758;6.096;2023-02-10T11:34:21;20.02;;;8.65;;
43042;SDS011;28667;50.758;6.096;2023-02-10T11:36:47;22.98;;;9.77;;
43042;SDS011;28667;50.758;6.096;2023-02-10T11:39:19;18.40;;;8.60;;
43042;SDS011;28667;50.758;6.096;2023-02-10T11:41:48;20.95;;;9.85;;
43042;SDS011;28667;50.758;6.096;2023-02-10T11:46:58;15.00;;;8.10;;
43042;SDS011;28667;50.758;6.096;2023-02-10T11:49:28;20.27;;;8.98;;
43042;SDS011;28667;50.758;6.096;2023-02-10T11:51:59;19.83;;;9.15;;
43042;SDS011;28667;50.758;6.096;2023-02-10T11:54:27;23.30;;;8.70;;
43042;SDS011;28667;50.758;6.096;2023-02-10T12:10:47;25.33;;;9.10;;
43042;SDS011;28667;50.758;6.096;2023-02-10T12:15:53;18.48;;;9.23;;
43042;SDS011;28667;50.758;6.096;2023-02-10T12:19:24;19.38;;;9.05;;
43042;SDS011;28667;50.758;6.096;2023-02-10T12:27:22;17.48;;;8.80;;
43042;SDS011;28667;50.758;6.096;2023-02-10T12:32:54;24.38;;;9.15;;
43042;SDS011;28667;50.758;6.096;2023-02-10T12:41:13;26.30;;;8.95;;
43042;SDS011;28667;50.758;6.096;2023-02-10T12:52:21;18.52;;;9.15;;
43042;SDS011;28667;50.758;6.096;2023-02-10T12:55:16;22.23;;;9.18;;
43042;SDS011;28667;50.758;6.096;2023-02-10T12:57:46;19.10;;;8.43;;
43042;SDS011;28667;50.758;6.096;2023-02-10T13:03:01;19.45;;;8.82;;
43042;SDS011;28667;50.758;6.096;2023-02-10T13:05:48;18.40;;;9.25;;
43042;SDS011;28667;50.758;6.096;2023-02-10T13:08:29;20.25;;;8.73;;
43042;SDS011;28667;50.758;6.096;2023-02-10T13:11:05;25.13;;;8.93;;
43042;SDS011;28667;50.758;6.096;2023-02-10T13:13:39;21.88;;;8.45;;
43042;SDS011;28667;50.758;6.096;2023-02-10T13:16:13;18.30;;;9.43;;
43042;SDS011;28667;50.758;6.096;2023-02-10T13:18:50;19.80;;;8.50;;
43042;SDS011;28667;50.758;6.096;2023-02-10T13:21:48;21.25;;;8.90;;
43042;SDS011;28667;50.758;6.096;2023-02-10T13:24:21;16.42;;;8.45;;
43042;SDS011;28667;50.758;6.096;2023-02-10T13:35:14;16.90;;;7.22;;
43042;SDS011;28667;50.758;6.096;2023-02-10T13:37:56;16.50;;;7.65;;
43042;SDS011;28667;50.758;6.096;2023-02-10T13:40:26;22.33;;;9.15;;
43042;SDS011;28667;50.758;6.096;2023-02-10T13:45:21;19.77;;;9.05;;
43042;SDS011;28667;50.758;6.096;2023-02-10T13:47:51;18.92;;;8.90;;
43042;SDS011;28667;50.758;6.096;2023-02-10T13:50:24;22.70;;;9.60;;
43042;SDS011;28667;50.758;6.096;2023-02-10T14:00:44;17.92;;;7.32;;
43042;SDS011;28667;50.758;6.096;2023-02-10T14:08:36;15.80;;;6.33;;
43042;SDS011;28667;50.758;6.096;2023-02-10T14:11:05;15.73;;;6.18;;
43042;SDS011;28667;50.758;6.096;2023-02-10T14:14:19;14.43;;;6.40;;
43042;SDS011;28667;50.758;6.096;2023-02-10T14:16:50;14.75;;;6.80;;
43042;SDS011;28667;50.758;6.096;2023-02-10T14:24:29;9.20;;;5.45;;
43042;SDS011;28667;50.758;6.096;2023-02-10T14:27:00;12.65;;;6.03;;
43042;SDS011;28667;50.758;6.096;2023-02-10T14:29:29;12.52;;;6.25;;
43042;SDS011;28667;50.758;6.096;2023-02-10T14:31:58;14.70;;;6.47;;
43042;SDS011;28667;50.758;6.096;2023-02-10T14:36:55;12.98;;;6.80;;
43042;SDS011;28667;50.758;6.096;2023-02-10T14:39:23;11.32;;;5.63;;
43042;SDS011;28667;50.758;6.096;2023-02-10T14:41:53;10.20;;;5.00;;
43042;SDS011;28667;50.758;6.096;2023-02-10T14:46:51;11.23;;;5.35;;
43042;SDS011;28667;50.758;6.096;2023-02-10T14:49:19;13.63;;;5.80;;
43042;SDS011;28667;50.758;6.096;2023-02-10T14:51:46;15.18;;;5.93;;
43042;SDS011;28667;50.758;6.096;2023-02-10T14:54:21;12.40;;;5.50;;
43042;SDS011;28667;50.758;6.096;2023-02-10T14:56:52;14.15;;;6.28;;
43042;SDS011;28667;50.758;6.096;2023-02-10T14:59:19;16.52;;;5.65;;
43042;SDS011;28667;50.758;6.096;2023-02-10T15:01:51;14.90;;;6.38;;
43042;SDS011;28667;50.758;6.096;2023-02-10T15:04:18;8.57;;;5.00;;
43042;SDS011;28667;50.758;6.096;2023-02-10T15:06:47;18.00;;;7.35;;
43042;SDS011;28667;50.758;6.096;2023-02-10T15:09:15;19.67;;;7.47;;
43042;SDS011;28667;50.758;6.096;2023-02-10T15:11:49;19.83;;;7.47;;
43042;SDS011;28667;50.758;6.096;2023-02-10T15:17:17;16.63;;;7.95;;
43042;SDS011;28667;50.758;6.096;2023-02-10T15:19:51;18.25;;;7.68;;
43042;SDS011;28667;50.758;6.096;2023-02-10T15:25:10;15.70;;;7.90;;
43042;SDS011;28667;50.758;6.096;2023-02-10T15:30:42;17.58;;;7.65;;
43042;SDS011;28667;50.758;6.096;2023-02-10T15:38:44;18.35;;;7.95;;
43042;SDS011;28667;50.758;6.096;2023-02-10T15:41:39;18.67;;;7.93;;
43042;SDS011;28667;50.758;6.096;2023-02-10T15:46:43;20.17;;;8.07;;
43042;SDS011;28667;50.758;6.096;2023-02-10T15:49:12;17.58;;;7.32;;
43042;SDS011;28667;50.758;6.096;2023-02-10T15:51:44;21.10;;;8.35;;
43042;SDS011;28667;50.758;6.096;2023-02-10T15:54:12;16.67;;;7.45;;
43042;SDS011;28667;50.758;6.096;2023-02-10T15:56:40;19.23;;;8.13;;
43042;SDS011;28667;50.758;6.096;2023-02-10T15:59:12;24.77;;;9.13;;
43042;SDS011;28667;50.758;6.096;2023-02-10T16:01:40;21.25;;;8.70;;
43042;SDS011;28667;50.758;6.096;2023-02-10T16:04:06;20.95;;;7.78;;
43042;SDS011;28667;50.758;6.096;2023-02-10T16:06:32;23.13;;;8.82;;
43042;SDS011;28667;50.758;6.096;2023-02-10T16:08:58;15.43;;;8.30;;
43042;SDS011;28667;50.758;6.096;2023-02-10T16:11:24;21.15;;;7.72;;
43042;SDS011;28667;50.758;6.096;2023-02-10T16:13:53;25.50;;;10.45;;
43042;SDS011;28667;50.758;6.096;2023-02-10T16:16:19;25.48;;;9.57;;
43042;SDS011;28667;50.758;6.096;2023-02-10T16:18:45;22.63;;;10.27;;
43042;SDS011;28667;50.758;6.096;2023-02-10T16:21:12;22.65;;;8.05;;
43042;SDS011;28667;50.758;6.096;2023-02-10T16:23:39;20.77;;;8.80;;
43042;SDS011;28667;50.758;6.096;2023-02-10T16:26:05;19.00;;;9.38;;
43042;SDS011;28667;50.758;6.096;2023-02-10T16:28:31;18.02;;;8.35;;
43042;SDS011;28667;50.758;6.096;2023-02-10T16:30:57;27.73;;;10.80;;
43042;SDS011;28667;50.758;6.096;2023-02-10T16:33:23;23.40;;;10.70;;
43042;SDS011;28667;50.758;6.096;2023-02-10T16:35:48;25.02;;;10.25;;
43042;SDS011;28667;50.758;6.096;2023-02-10T16:38:14;23.55;;;10.40;;
43042;SDS011;28667;50.758;6.096;2023-02-10T16:40:40;33.97;;;10.70;;
43042;SDS011;28667;50.758;6.096;2023-02-10T16:43:08;21.58;;;10.38;;
43042;SDS011;28667;50.758;6.096;2023-02-10T16:45:34;25.77;;;10.02;;
43042;SDS011;28667;50.758;6.096;2023-02-10T16:48:00;35.67;;;11.32;;
43042;SDS011;28667;50.758;6.096;2023-02-10T16:52:57;27.60;;;10.40;;
43042;SDS011;28667;50.758;6.096;2023-02-10T16:55:23;33.42;;;11.63;;
43042;SDS011;28667;50.758;6.096;2023-02-10T16:57:49;24.45;;;10.25;;
43042;SDS011;28667;50.758;6.096;2023-02-10T17:00:15;22.15;;;10.45;;
43042;SDS011;28667;50.758;6.096;2023-02-10T17:02:43;32.10;;;10.65;;
43042;SDS011;28667;50.758;6.096;2023-02-10T17:05:09;30.33;;;10.98;;
43042;SDS011;28667;50.758;6.096;2023-02-10T17:07:39;29.92;;;12.23;;
43042;SDS011;28667;50.758;6.096;2023-02-10T17:10:06;29.00;;;13.50;;
43042;SDS011;28667;50.758;6.096;2023-02-10T17:12:36;35.63;;;12.50;;
43042;SDS011;28667;50.758;6.096;2023-02-10T17:15:02;30.65;;;13.20;;